North Heidelberg, Pennsylvania
Current Conditions -  °F | °C
As of 3:23 PM on Sunday 25 Jan 2015 (Local Time) from KRDG Reporting Station
Broken Clouds Broken Clouds  
Wind Chill: 33°   Ceiling: 11000
Heat Index: 38°   Visibility: 10mi
Dew Point: 31°   Wind: 6mph
Humidity: 76%   Direction: 310°NW
Pressure: 29.8"   Gusts: NA
Location:  40.4645°N, 76.1345°W
Report Text: KRDG 252023Z AUTO 31005KT 10SM SCT024 SCT033 BKN110 03/M01 A2980 RMK AO2 T00331006
Loading
Personal Weather Stations






























Interactive Weather Map New forecast layout! Learn more

10-Day Weather Forecast

Advertisements
Track Severe Weather on mobile